Time;durP1;ratioP1;P1;durP2;ratioP2;P2;SDS_P1;SDS_P2;PMS_P1;PMS_P2;Temp;Humidity;BMP_temperature;BMP_pressure;BME280_temperature;BME280_humidity;BME280_pressure;Samples;Min_cycle;Max_cycle;Signal;HPM_P1;HPM_P2
2024/03/28 00:02:06;;;;;;;4.97;3.70;;;5.70;99.90;;;;;;4984891;28;20211;-67
2024/03/28 00:04:32;;;;;;;4.03;3.20;;;5.60;99.90;;;;;;4974684;28;20411;-66
2024/03/28 00:06:58;;;;;;;3.40;2.93;;;5.50;99.90;;;;;;4980914;23;20221;-65
2024/03/28 00:09:24;;;;;;;3.47;3.03;;;5.50;99.90;;;;;;4955191;28;20516;-66
2024/03/28 00:11:49;;;;;;;3.60;3.03;;;5.40;99.90;;;;;;4955076;28;21029;-66
2024/03/28 00:14:15;;;;;;;3.30;3.00;;;5.30;99.90;;;;;;4953989;28;20173;-66
2024/03/28 00:16:42;;;;;;;3.20;2.90;;;5.30;99.90;;;;;;4953759;28;20287;-66
2024/03/28 00:19:07;;;;;;;3.10;2.87;;;5.20;99.90;;;;;;4955163;28;20577;-66
2024/03/28 00:21:34;;;;;;;3.33;3.03;;;5.20;99.90;;;;;;4955061;29;20547;-66
2024/03/28 00:24:00;;;;;;;2.90;2.60;;;5.20;99.90;;;;;;4946352;29;20465;-65
2024/03/28 00:26:26;;;;;;;4.00;3.30;;;5.10;99.90;;;;;;4935042;29;20853;-67
2024/03/28 00:28:51;;;;;;;3.37;3.07;;;5.00;99.90;;;;;;4935823;29;20172;-66
2024/03/28 00:31:17;;;;;;;3.30;3.00;;;5.00;99.90;;;;;;4935571;29;20931;-67
2024/03/28 00:33:42;;;;;;;3.47;3.10;;;5.00;99.90;;;;;;4953504;29;20173;-66
2024/03/28 00:36:08;;;;;;;3.80;3.40;;;5.00;99.90;;;;;;4954945;29;20197;-66
2024/03/28 00:38:34;;;;;;;3.40;3.10;;;5.00;99.90;;;;;;4937173;29;20177;-67
2024/03/28 00:40:59;;;;;;;3.90;2.93;;;5.00;99.90;;;;;;4935734;29;20180;-66
2024/03/28 00:43:25;;;;;;;3.27;2.97;;;4.90;99.90;;;;;;4935464;29;20336;-66
2024/03/28 00:45:50;;;;;;;4.30;3.90;;;4.90;99.90;;;;;;4935258;29;20173;-67
2024/03/28 00:48:17;;;;;;;3.50;3.20;;;4.90;99.90;;;;;;4948222;29;20717;-66
2024/03/28 00:51:03;;;;;;;3.20;2.93;;;4.90;99.90;;;;;;4953303;29;20173;-66
2024/03/28 00:53:29;;;;;;;4.00;3.07;;;4.90;99.90;;;;;;4954264;28;20470;-66
2024/03/28 00:55:55;;;;;;;4.13;3.00;;;4.90;99.90;;;;;;4954482;29;20507;-67
2024/03/28 00:58:21;;;;;;;3.70;3.40;;;4.90;99.90;;;;;;4953081;29;20872;-66
2024/03/28 01:00:48;;;;;;;5.03;3.80;;;4.80;99.90;;;;;;4954533;29;20428;-65
2024/03/28 01:03:14;;;;;;;4.37;3.00;;;4.80;99.90;;;;;;4955906;28;20299;-66
2024/03/28 01:05:40;;;;;;;3.60;3.30;;;4.70;99.90;;;;;;4954331;29;20440;-66
2024/03/28 01:08:06;;;;;;;3.60;3.27;;;4.70;99.90;;;;;;4953355;29;20996;-66
2024/03/28 01:10:33;;;;;;;3.23;3.00;;;4.70;99.90;;;;;;4954161;29;20436;-66
2024/03/28 01:12:59;;;;;;;4.00;3.70;;;4.60;99.90;;;;;;4954203;29;20432;-66
2024/03/28 01:15:25;;;;;;;4.60;3.40;;;4.60;99.90;;;;;;4954216;29;20435;-66
2024/03/28 01:17:50;;;;;;;4.07;3.67;;;4.60;99.90;;;;;;4952866;29;20262;-66
2024/03/28 01:20:16;;;;;;;3.67;2.93;;;4.60;99.90;;;;;;4954167;29;20184;-66
2024/03/28 01:22:43;;;;;;;3.20;3.00;;;4.60;99.90;;;;;;4953661;29;20284;-66
2024/03/28 01:25:09;;;;;;;3.27;3.07;;;4.60;99.90;;;;;;4954082;29;20224;-66
2024/03/28 01:27:35;;;;;;;3.40;3.10;;;4.60;99.90;;;;;;4953211;28;20475;-66
2024/03/28 01:30:02;;;;;;;4.37;3.10;;;4.50;99.90;;;;;;4954098;29;20835;-66
2024/03/28 01:32:27;;;;;;;5.40;3.33;;;4.50;99.90;;;;;;4953819;29;20942;-66
2024/03/28 01:34:52;;;;;;;3.27;2.97;;;4.50;99.90;;;;;;4953997;29;20436;-66
2024/03/28 01:37:19;;;;;;;3.53;3.10;;;4.50;99.90;;;;;;4953213;29;20224;-65
2024/03/28 01:39:47;;;;;;;3.33;3.00;;;4.50;99.90;;;;;;4954059;29;20176;-66
2024/03/28 01:42:12;;;;;;;2.77;2.50;;;4.50;99.90;;;;;;4953632;28;20526;-66
2024/03/28 01:44:38;;;;;;;3.33;2.83;;;4.50;99.90;;;;;;4953547;28;20436;-66
2024/03/28 01:47:04;;;;;;;3.00;2.70;;;4.50;99.90;;;;;;4953213;29;20276;-67
2024/03/28 01:49:31;;;;;;;3.27;3.00;;;4.50;99.90;;;;;;4954198;28;20188;-66
2024/03/28 01:51:58;;;;;;;2.90;2.70;;;4.40;99.90;;;;;;4957838;28;20436;-66
2024/03/28 01:54:25;;;;;;;3.40;3.10;;;4.50;99.90;;;;;;4957406;29;20460;-66
2024/03/28 01:56:51;;;;;;;3.60;3.30;;;4.40;99.90;;;;;;4956823;29;20925;-67
2024/03/28 01:59:17;;;;;;;3.60;3.13;;;4.40;99.90;;;;;;4957698;29;20431;-66
2024/03/28 02:01:45;;;;;;;3.03;2.73;;;4.40;99.90;;;;;;4957422;29;20963;-66
2024/03/28 02:04:11;;;;;;;3.17;2.93;;;4.40;99.90;;;;;;4957029;28;20441;-66
2024/03/28 02:06:37;;;;;;;4.00;3.57;;;4.30;99.90;;;;;;4956638;29;20834;-67
2024/03/28 02:09:05;;;;;;;3.17;2.93;;;4.30;99.90;;;;;;4957237;29;20815;-66
2024/03/28 02:11:32;;;;;;;3.60;3.30;;;4.30;99.90;;;;;;4957456;29;20448;-67
2024/03/28 02:13:58;;;;;;;3.67;3.37;;;4.30;99.90;;;;;;4946883;29;20437;-66
2024/03/28 02:16:23;;;;;;;2.90;2.70;;;4.20;99.90;;;;;;4937667;29;20496;-67
2024/03/28 02:18:49;;;;;;;3.73;3.40;;;4.20;99.90;;;;;;4937874;29;20193;-66
2024/03/28 02:21:14;;;;;;;2.90;2.70;;;4.10;99.90;;;;;;4941197;29;20256;-66
2024/03/28 02:23:40;;;;;;;5.30;3.60;;;4.10;99.90;;;;;;4957181;29;20658;-66
2024/03/28 02:26:05;;;;;;;2.97;2.70;;;4.10;99.90;;;;;;4957069;29;20300;-66
2024/03/28 02:28:35;;;;;;;3.40;3.10;;;4.10;99.90;;;;;;4956665;29;20177;-66
2024/03/28 02:31:01;;;;;;;5.40;3.43;;;4.10;99.90;;;;;;4956361;29;20181;-66
2024/03/28 02:33:26;;;;;;;3.27;2.97;;;4.00;99.90;;;;;;4957092;28;20433;-65
2024/03/28 02:35:52;;;;;;;3.90;3.30;;;4.00;99.90;;;;;;4956957;29;20835;-66
2024/03/28 02:38:18;;;;;;;3.40;3.10;;;4.00;99.90;;;;;;4956170;28;20248;-67
2024/03/28 02:40:44;;;;;;;3.23;2.93;;;3.90;99.90;;;;;;4956953;29;20161;-66
2024/03/28 02:43:09;;;;;;;7.73;3.23;;;3.90;99.90;;;;;;4956650;29;20471;-66
2024/03/28 02:45:36;;;;;;;3.67;3.30;;;3.90;99.90;;;;;;4956849;29;20175;-67
2024/03/28 02:48:01;;;;;;;2.70;2.50;;;3.80;99.90;;;;;;4956023;29;20224;-66
2024/03/28 02:50:27;;;;;;;4.13;3.73;;;3.80;99.90;;;;;;4956534;29;20424;-66
2024/03/28 02:52:52;;;;;;;4.30;3.63;;;3.80;99.90;;;;;;4956587;29;20183;-66
2024/03/28 02:55:18;;;;;;;3.90;3.33;;;3.80;99.90;;;;;;4956306;29;20189;-67
2024/03/28 02:57:43;;;;;;;3.90;3.60;;;3.80;99.90;;;;;;4954539;29;20201;-66
2024/03/28 03:00:09;;;;;;;3.73;3.43;;;3.90;99.90;;;;;;4956220;28;20181;-66
2024/03/28 03:02:35;;;;;;;3.63;3.30;;;3.90;99.90;;;;;;4956329;29;20247;-67
2024/03/28 03:05:00;;;;;;;3.97;3.07;;;3.90;99.90;;;;;;4956453;28;20466;-66
2024/03/28 03:07:26;;;;;;;3.63;3.30;;;3.90;99.90;;;;;;4955624;29;20255;-66
2024/03/28 03:09:51;;;;;;;3.30;2.80;;;3.90;99.90;;;;;;4956617;29;20252;-66
2024/03/28 03:12:17;;;;;;;3.67;3.17;;;3.80;99.90;;;;;;4956304;29;20173;-66
2024/03/28 03:14:42;;;;;;;4.30;2.80;;;3.80;99.90;;;;;;4956183;29;20285;-66
2024/03/28 03:17:09;;;;;;;3.00;2.73;;;3.80;99.90;;;;;;4955482;28;20224;-66
2024/03/28 03:19:36;;;;;;;2.80;2.60;;;3.70;99.90;;;;;;4950707;28;20185;-67
2024/03/28 03:22:02;;;;;;;3.50;2.70;;;3.70;99.90;;;;;;4936824;29;20496;-66
2024/03/28 03:24:34;;;;;;;3.80;3.40;;;3.60;99.90;;;;;;4937004;29;20449;-66
2024/03/28 03:27:04;;;;;;;3.07;2.83;;;3.60;99.90;;;;;;4936183;29;20438;-66
2024/03/28 03:34:59;;;;;;;3.23;2.93;;;3.50;99.90;;;;;;4948382;29;20451;-67
2024/03/28 03:37:25;;;;;;;3.10;2.80;;;3.50;99.90;;;;;;4936087;29;21214;-65
2024/03/28 03:40:01;;;;;;;3.20;2.87;;;3.50;99.90;;;;;;4936617;29;20252;-67
2024/03/28 03:42:26;;;;;;;4.70;3.20;;;3.50;99.90;;;;;;4936618;29;20488;-66
2024/03/28 03:44:52;;;;;;;5.33;3.43;;;3.40;99.90;;;;;;4936836;29;20900;-67
2024/03/28 03:47:17;;;;;;;3.30;3.00;;;3.40;99.90;;;;;;4935753;29;20200;-66
2024/03/28 03:49:44;;;;;;;4.57;2.93;;;3.30;99.90;;;;;;4939669;29;20545;-67
2024/03/28 03:52:16;;;;;;;5.43;3.20;;;3.30;99.90;;;;;;4955549;28;20180;-65
2024/03/28 03:54:42;;;;;;;4.07;3.67;;;3.30;99.90;;;;;;4955551;29;20909;-66
2024/03/28 03:57:09;;;;;;;7.03;3.60;;;3.20;99.90;;;;;;4947507;29;20453;-66
2024/03/28 03:59:36;;;;;;;3.90;3.60;;;3.30;99.90;;;;;;4936131;29;20497;-66
2024/03/28 04:02:01;;;;;;;4.90;3.67;;;3.30;99.90;;;;;;4936230;29;20552;-66
2024/03/28 04:04:27;;;;;;;5.37;4.10;;;3.20;99.90;;;;;;4936260;29;21190;-66
2024/03/28 04:06:52;;;;;;;4.60;4.20;;;3.30;99.90;;;;;;4935450;29;20237;-66
2024/03/28 04:09:18;;;;;;;6.17;4.00;;;3.30;99.90;;;;;;4936222;29;20237;-67
2024/03/28 04:11:46;;;;;;;5.77;3.73;;;3.30;99.90;;;;;;4935818;29;20184;-67
2024/03/28 04:14:12;;;;;;;6.90;4.00;;;3.30;99.90;;;;;;4939482;29;20177;-66
2024/03/28 04:16:37;;;;;;;4.17;3.13;;;3.30;99.90;;;;;;4943024;29;20822;-66
2024/03/28 04:19:03;;;;;;;4.93;3.90;;;3.20;99.90;;;;;;4935981;29;20690;-67
2024/03/28 04:21:34;;;;;;;3.47;3.20;;;3.20;99.90;;;;;;4948963;29;20268;-66
2024/03/28 04:24:00;;;;;;;3.37;3.07;;;3.20;99.90;;;;;;4954980;29;20224;-67
2024/03/28 04:26:26;;;;;;;4.10;3.40;;;3.20;99.90;;;;;;4935998;29;20464;-68
2024/03/28 04:28:52;;;;;;;3.93;3.47;;;3.20;99.90;;;;;;4935835;29;20417;-67
2024/03/28 04:31:17;;;;;;;3.63;3.33;;;3.20;99.90;;;;;;4935744;29;20428;-67
2024/03/28 04:33:42;;;;;;;4.13;3.80;;;3.10;99.90;;;;;;4935706;29;20180;-66
2024/03/28 04:36:08;;;;;;;4.80;3.40;;;3.10;99.90;;;;;;4935745;29;20201;-66
2024/03/28 04:38:35;;;;;;;5.83;3.93;;;3.10;99.90;;;;;;4934942;29;20565;-66
2024/03/28 04:41:02;;;;;;;4.37;3.97;;;3.10;99.90;;;;;;4935554;29;20592;-66
2024/03/28 04:43:27;;;;;;;5.43;4.93;;;3.10;99.90;;;;;;4935381;29;20544;-67
2024/03/28 04:45:53;;;;;;;5.03;4.53;;;3.00;99.90;;;;;;4941820;29;20568;-66
2024/03/28 04:48:18;;;;;;;5.07;4.27;;;3.00;99.90;;;;;;4953899;29;20219;-66
2024/03/28 04:50:45;;;;;;;5.33;4.60;;;3.00;99.90;;;;;;4950902;29;20713;-67
2024/03/28 04:53:10;;;;;;;5.17;4.67;;;3.00;99.90;;;;;;4935285;29;20174;-67
2024/03/28 04:55:36;;;;;;;5.87;4.53;;;3.00;99.90;;;;;;4935253;29;20436;-67
2024/03/28 04:58:01;;;;;;;7.37;5.23;;;3.00;99.90;;;;;;4934634;29;20201;-67
2024/03/28 05:00:27;;;;;;;5.30;4.80;;;3.00;99.90;;;;;;4935307;29;20178;-66
2024/03/28 05:02:52;;;;;;;8.17;6.17;;;2.90;99.90;;;;;;4935069;29;20208;-66
2024/03/28 05:05:18;;;;;;;5.30;4.60;;;3.00;99.90;;;;;;4935207;29;20252;-67
2024/03/28 05:07:45;;;;;;;6.23;4.87;;;2.90;99.90;;;;;;4951676;29;20283;-67
2024/03/28 05:10:11;;;;;;;5.20;4.33;;;3.00;99.90;;;;;;4954216;29;20825;-67
2024/03/28 05:12:36;;;;;;;5.87;4.80;;;3.00;99.90;;;;;;4954176;29;20181;-67
2024/03/28 05:15:02;;;;;;;5.00;4.47;;;3.00;99.90;;;;;;4954132;29;20200;-67
2024/03/28 05:17:27;;;;;;;5.40;4.90;;;3.00;99.90;;;;;;4938447;28;20737;-66
2024/03/28 05:19:53;;;;;;;5.40;4.73;;;2.90;99.90;;;;;;4935016;29;20213;-66
2024/03/28 05:22:19;;;;;;;5.20;4.43;;;2.90;99.90;;;;;;4935005;29;20224;-67
2024/03/28 05:24:44;;;;;;;5.63;5.13;;;3.00;99.90;;;;;;4934849;29;20201;-67
2024/03/28 05:27:13;;;;;;;4.73;4.33;;;3.00;99.90;;;;;;4934162;29;20193;-67
2024/03/28 05:29:41;;;;;;;7.83;5.50;;;3.00;99.90;;;;;;4949612;29;20264;-67
2024/03/28 05:32:07;;;;;;;7.17;5.77;;;3.00;99.90;;;;;;4954168;29;20592;-66
2024/03/28 05:34:33;;;;;;;6.67;5.83;;;3.00;99.90;;;;;;4954017;28;20853;-67
2024/03/28 05:36:59;;;;;;;5.83;5.23;;;3.00;99.90;;;;;;4945642;29;20493;-67
2024/03/28 05:39:24;;;;;;;5.60;5.10;;;3.00;99.90;;;;;;4934676;29;20636;-67
2024/03/28 05:41:50;;;;;;;5.97;4.90;;;3.10;99.90;;;;;;4934787;29;20197;-66
2024/03/28 05:44:16;;;;;;;6.60;5.60;;;3.20;99.90;;;;;;4935011;29;20178;-67
2024/03/28 05:46:41;;;;;;;6.40;5.80;;;3.30;99.90;;;;;;4934223;29;20201;-67
2024/03/28 05:49:07;;;;;;;5.53;5.03;;;3.50;99.90;;;;;;4934765;29;20188;-67
2024/03/28 05:51:32;;;;;;;7.47;5.30;;;3.70;99.90;;;;;;4936401;29;20174;-67
2024/03/28 05:53:58;;;;;;;5.53;5.03;;;3.90;99.90;;;;;;4941129;29;20606;-67
2024/03/28 05:56:23;;;;;;;5.97;5.37;;;4.10;99.90;;;;;;4934135;29;20208;-66
2024/03/28 05:58:49;;;;;;;6.00;5.10;;;4.30;99.90;;;;;;4934480;29;20172;-68
2024/03/28 06:01:16;;;;;;;4.97;4.47;;;4.50;99.90;;;;;;4934716;29;20640;-67
2024/03/28 06:03:42;;;;;;;5.00;4.53;;;4.70;99.90;;;;;;4943846;29;20205;-66
2024/03/28 06:06:08;;;;;;;5.43;4.47;;;4.90;99.90;;;;;;4953524;29;20528;-67
2024/03/28 06:08:35;;;;;;;4.87;4.37;;;4.90;99.90;;;;;;4952842;29;20188;-66
2024/03/28 06:11:01;;;;;;;5.03;4.50;;;4.90;99.90;;;;;;4953632;28;20697;-66
2024/03/28 06:13:33;;;;;;;5.30;4.80;;;4.80;99.90;;;;;;4953835;29;20428;-66
2024/03/28 06:15:59;;;;;;;4.80;4.40;;;4.90;99.90;;;;;;4953421;29;20263;-66
2024/03/28 06:18:26;;;;;;;3.80;3.40;;;5.10;99.90;;;;;;4952927;29;20423;-67
2024/03/28 06:21:04;;;;;;;4.60;3.67;;;5.40;99.90;;;;;;4953597;28;20797;-66
2024/03/28 06:23:30;;;;;;;4.10;3.70;;;5.60;99.90;;;;;;4953196;29;20534;-67
2024/03/28 06:26:00;;;;;;;5.13;3.87;;;5.50;99.90;;;;;;4953398;29;20423;-66
2024/03/28 06:28:26;;;;;;;3.87;3.43;;;5.50;99.90;;;;;;4952873;28;20421;-66
2024/03/28 06:30:56;;;;;;;4.23;3.20;;;5.30;99.90;;;;;;4952489;28;20421;-66
2024/03/28 06:33:30;;;;;;;3.27;3.00;;;5.30;99.90;;;;;;4934475;29;20429;-67
2024/03/28 06:35:57;;;;;;;4.07;3.67;;;5.30;99.90;;;;;;4935463;29;20432;-67
2024/03/28 06:38:22;;;;;;;5.23;3.17;;;5.30;99.90;;;;;;4938116;29;20450;-67
2024/03/28 06:40:57;;;;;;;6.20;2.50;;;5.40;99.90;;;;;;4937742;29;20453;-67
2024/03/28 06:43:23;;;;;;;3.93;3.10;;;5.50;99.90;;;;;;4937649;29;20205;-66
2024/03/28 06:45:48;;;;;;;3.07;2.77;;;5.70;99.90;;;;;;4937708;29;20409;-67
2024/03/28 06:48:14;;;;;;;3.13;2.70;;;5.80;99.90;;;;;;4961683;28;20204;-67
2024/03/28 06:50:39;;;;;;;2.60;2.40;;;5.90;99.90;;;;;;4956733;29;20181;-67
2024/03/28 06:53:05;;;;;;;2.63;2.43;;;5.90;99.90;;;;;;4956068;29;20599;-66
2024/03/28 06:55:31;;;;;;;2.73;2.50;;;5.80;99.90;;;;;;4956740;29;20175;-66
2024/03/28 06:57:56;;;;;;;3.33;3.03;;;5.70;99.90;;;;;;4955738;29;20196;-66
2024/03/28 07:00:22;;;;;;;3.13;2.83;;;5.60;99.90;;;;;;4948173;29;20182;-66
2024/03/28 07:02:47;;;;;;;3.20;2.90;;;5.40;99.90;;;;;;4956182;29;20224;-66
2024/03/28 07:05:13;;;;;;;3.40;3.10;;;5.30;99.90;;;;;;4956215;28;20188;-66
2024/03/28 07:07:39;;;;;;;4.60;3.40;;;5.20;99.90;;;;;;4953317;28;20224;-66
2024/03/28 07:10:06;;;;;;;5.60;3.90;;;5.20;99.90;;;;;;4955831;28;20177;-66
2024/03/28 07:12:33;;;;;;;8.43;4.30;;;5.10;99.90;;;;;;4956293;28;20428;-66
2024/03/28 07:14:58;;;;;;;5.30;4.80;;;5.00;99.90;;;;;;4956305;28;20444;-66
2024/03/28 07:17:23;;;;;;;5.90;4.90;;;5.00;99.90;;;;;;4958659;28;20479;-66
2024/03/28 07:19:49;;;;;;;6.93;4.90;;;5.00;99.90;;;;;;4958299;28;20670;-66
2024/03/28 07:22:14;;;;;;;8.23;5.37;;;5.00;99.90;;;;;;4956141;29;20219;-66
2024/03/28 07:24:40;;;;;;;6.50;4.30;;;5.00;99.90;;;;;;4955854;28;20208;-66
2024/03/28 07:27:05;;;;;;;7.17;4.63;;;5.00;99.90;;;;;;4936386;28;20667;-66
2024/03/28 07:29:31;;;;;;;6.50;5.00;;;5.10;99.90;;;;;;4936909;29;20181;-66
2024/03/28 07:31:57;;;;;;;7.83;5.87;;;5.20;99.90;;;;;;4936655;29;20196;-66
2024/03/28 07:34:22;;;;;;;8.53;5.40;;;5.20;99.90;;;;;;4937626;29;20185;-66
2024/03/28 07:36:48;;;;;;;6.63;5.73;;;5.30;99.90;;;;;;4955045;28;20205;-66
2024/03/28 07:39:14;;;;;;;6.93;4.70;;;5.40;99.90;;;;;;4946051;28;20185;-66
2024/03/28 07:41:41;;;;;;;6.20;4.70;;;5.60;99.90;;;;;;4936447;29;20182;-66
2024/03/28 07:44:07;;;;;;;5.60;4.60;;;5.60;99.90;;;;;;4935406;29;20422;-66
2024/03/28 07:46:32;;;;;;;4.63;4.20;;;5.60;99.90;;;;;;4952875;28;20547;-66
2024/03/28 07:48:59;;;;;;;5.13;4.63;;;5.60;99.90;;;;;;4954972;28;20519;-66
2024/03/28 07:51:24;;;;;;;7.83;5.30;;;5.70;99.90;;;;;;4955582;28;20181;-66
2024/03/28 07:53:52;;;;;;;6.90;4.47;;;5.80;99.90;;;;;;4951037;28;21025;-66
2024/03/28 07:56:18;;;;;;;5.80;4.63;;;5.90;99.90;;;;;;4941530;28;20629;-66
2024/03/28 07:58:43;;;;;;;5.63;3.93;;;6.10;99.90;;;;;;4974288;28;20419;-66
2024/03/28 08:01:09;;;;;;;5.47;3.90;;;6.10;99.90;;;;;;4974609;28;20180;-66
2024/03/28 08:03:35;;;;;;;4.90;4.13;;;6.10;99.90;;;;;;4965510;28;20263;-66
2024/03/28 08:06:11;;;;;;;4.33;3.70;;;6.20;99.90;;;;;;4955000;28;20169;-66
2024/03/28 08:08:36;;;;;;;4.57;4.00;;;6.20;99.90;;;;;;4953993;28;20223;-66
2024/03/28 08:11:02;;;;;;;5.37;4.47;;;6.30;99.90;;;;;;4935909;29;20794;-66
2024/03/28 08:13:27;;;;;;;3.70;3.23;;;6.30;99.90;;;;;;4942400;29;20216;-66
2024/03/28 08:15:54;;;;;;;4.20;3.50;;;6.30;99.90;;;;;;4954663;29;20581;-66
2024/03/28 08:18:20;;;;;;;4.27;3.57;;;6.40;99.90;;;;;;4954339;28;20180;-66
2024/03/28 08:20:45;;;;;;;4.43;2.87;;;6.50;99.90;;;;;;4955069;28;20930;-66
2024/03/28 08:23:11;;;;;;;4.93;2.97;;;6.60;99.90;;;;;;4954123;28;20693;-66
2024/03/28 08:25:37;;;;;;;3.70;3.30;;;6.70;99.90;;;;;;4954951;29;20181;-66
2024/03/28 08:28:03;;;;;;;3.77;3.43;;;6.70;99.90;;;;;;4970478;28;20462;-66
2024/03/28 08:30:30;;;;;;;2.77;2.50;;;6.80;99.90;;;;;;4974087;28;20420;-66
2024/03/28 08:32:57;;;;;;;3.10;2.80;;;6.80;99.90;;;;;;4972763;28;20180;-66
2024/03/28 08:35:23;;;;;;;2.80;2.50;;;6.90;99.90;;;;;;4954721;28;20429;-66
2024/03/28 08:37:49;;;;;;;3.37;2.97;;;7.00;99.90;;;;;;4954145;28;20503;-66
2024/03/28 08:40:14;;;;;;;2.70;2.50;;;7.00;99.90;;;;;;4936851;28;20656;-65
2024/03/28 08:42:40;;;;;;;3.80;3.30;;;7.10;99.90;;;;;;4935520;29;20212;-65
2024/03/28 08:45:11;;;;;;;3.40;2.70;;;7.10;99.90;;;;;;4935399;29;20176;-66
2024/03/28 08:47:37;;;;;;;2.53;2.33;;;7.10;99.90;;;;;;4934598;29;20679;-66
2024/03/28 08:50:03;;;;;;;3.53;2.60;;;7.10;99.90;;;;;;4948387;28;20463;-66
2024/03/28 08:52:29;;;;;;;4.33;2.87;;;7.10;99.90;;;;;;4954488;28;20181;-66
2024/03/28 08:54:56;;;;;;;2.67;2.33;;;7.10;99.90;;;;;;4940931;28;20430;-66
2024/03/28 08:57:22;;;;;;;3.00;2.10;;;7.30;99.90;;;;;;4934311;29;20939;-66
2024/03/28 08:59:47;;;;;;;1.87;1.73;;;7.40;99.90;;;;;;4943884;28;20938;-66
2024/03/28 09:02:14;;;;;;;2.10;1.90;;;7.40;99.90;;;;;;4954252;28;20471;-66
2024/03/28 09:04:40;;;;;;;2.23;1.90;;;7.60;99.90;;;;;;4953560;28;20255;-66
2024/03/28 09:07:05;;;;;;;2.50;1.77;;;7.70;99.90;;;;;;4952723;29;20611;-66
2024/03/28 09:09:32;;;;;;;1.63;1.53;;;7.90;99.90;;;;;;4950351;28;20181;-66
2024/03/28 09:11:58;;;;;;;2.50;2.10;;;7.90;99.90;;;;;;4953801;28;20177;-66
2024/03/28 09:14:23;;;;;;;2.03;1.47;;;7.90;99.90;;;;;;4954258;29;20428;-66
2024/03/28 09:16:49;;;;;;;3.10;1.20;;;7.90;99.90;;;;;;4953148;29;20975;-66
2024/03/28 09:19:14;;;;;;;1.20;1.10;;;8.00;99.90;;;;;;4951395;29;20514;-66
2024/03/28 09:21:40;;;;;;;1.40;1.30;;;8.00;99.90;;;;;;4951669;28;20655;-66
2024/03/28 09:24:09;;;;;;;1.73;1.23;;;7.90;99.90;;;;;;4953381;28;20173;-66
2024/03/28 09:26:35;;;;;;;1.20;1.10;;;7.80;99.90;;;;;;4953119;28;20181;-66
2024/03/28 09:29:00;;;;;;;1.23;1.13;;;7.90;99.90;;;;;;4953993;29;20791;-66
2024/03/28 09:31:27;;;;;;;1.83;1.00;;;7.90;99.90;;;;;;4953274;28;20177;-66
2024/03/28 09:33:53;;;;;;;1.70;1.20;;;7.90;99.90;;;;;;4953986;29;20307;-66
2024/03/28 09:36:19;;;;;;;3.07;1.50;;;7.90;99.90;;;;;;4953554;29;20444;-66
2024/03/28 09:38:50;;;;;;;1.10;1.07;;;7.90;99.90;;;;;;4953549;29;20580;-66
2024/03/28 09:41:25;;;;;;;1.23;1.13;;;8.00;99.90;;;;;;4941606;28;20534;-67
2024/03/28 09:43:55;;;;;;;1.23;1.10;;;8.00;99.90;;;;;;4953844;29;20459;-67
2024/03/28 09:46:21;;;;;;;1.50;1.17;;;8.10;99.90;;;;;;4953498;28;20508;-66
2024/03/28 09:48:46;;;;;;;0.87;0.87;;;8.10;99.90;;;;;;4953442;29;20456;-67
2024/03/28 09:51:14;;;;;;;1.30;1.20;;;8.20;99.90;;;;;;4953102;28;20420;-67
2024/03/28 09:53:40;;;;;;;1.13;1.00;;;8.40;99.90;;;;;;4953699;28;20177;-67
2024/03/28 09:56:07;;;;;;;1.40;1.30;;;8.40;99.90;;;;;;4938980;28;20440;-66
2024/03/28 09:58:34;;;;;;;1.17;0.90;;;8.50;99.90;;;;;;4933931;29;20417;-66
2024/03/28 10:01:01;;;;;;;1.10;0.93;;;8.50;99.90;;;;;;4948178;29;20432;-66
2024/03/28 10:03:33;;;;;;;2.13;1.03;;;8.50;99.90;;;;;;4953582;28;20881;-66
2024/03/28 10:05:59;;;;;;;0.90;0.90;;;8.50;99.90;;;;;;4953408;28;20499;-66
2024/03/28 10:08:26;;;;;;;1.20;1.03;;;8.60;99.90;;;;;;4952871;28;20524;-66
2024/03/28 10:10:52;;;;;;;0.60;0.60;;;8.70;99.90;;;;;;4954115;28;20435;-66
2024/03/28 10:13:18;;;;;;;0.70;0.70;;;8.80;99.90;;;;;;4957252;28;20950;-67
2024/03/28 10:15:54;;;;;;;4.63;0.70;;;8.90;99.90;;;;;;4957255;28;20427;-67
2024/03/28 10:18:19;;;;;;;1.00;0.73;;;8.90;99.90;;;;;;4956541;28;20463;-66
2024/03/28 10:20:55;;;;;;;2.33;1.20;;;9.20;99.90;;;;;;4946909;28;20457;-67
2024/03/28 10:23:22;;;;;;;1.00;0.90;;;9.40;99.90;;;;;;4946125;28;20541;-67
2024/03/28 10:25:48;;;;;;;0.60;0.60;;;10.00;99.90;;;;;;4947552;28;20500;-66
2024/03/28 10:28:19;;;;;;;0.90;0.73;;;10.60;99.90;;;;;;4937181;29;20532;-67
2024/03/28 10:30:49;;;;;;;0.80;0.77;;;10.50;99.90;;;;;;4938031;29;20174;-66
2024/03/28 10:33:15;;;;;;;1.03;0.70;;;10.50;99.90;;;;;;4941459;28;20428;-67
2024/03/28 10:35:41;;;;;;;0.93;0.60;;;10.30;99.90;;;;;;4957046;28;21013;-67
2024/03/28 10:38:08;;;;;;;1.60;0.80;;;10.60;99.90;;;;;;4956154;28;20189;-66
2024/03/28 10:40:35;;;;;;;1.33;0.60;;;10.60;99.90;;;;;;4950204;28;20440;-66
2024/03/28 10:43:02;;;;;;;0.70;0.70;;;10.70;99.90;;;;;;4937624;29;20545;-67
2024/03/28 10:45:32;;;;;;;1.50;0.70;;;10.90;99.90;;;;;;4955243;28;20475;-67
2024/03/28 10:47:59;;;;;;;0.70;0.70;;;11.20;99.90;;;;;;4955889;28;20448;-67
2024/03/28 10:50:36;;;;;;;1.13;0.90;;;11.30;99.90;;;;;;4956155;28;20428;-67
2024/03/28 10:53:07;;;;;;;2.50;1.37;;;11.40;99.90;;;;;;4956476;29;20428;-66
2024/03/28 10:55:36;;;;;;;1.33;0.70;;;11.80;99.90;;;;;;4952013;28;20480;-67
2024/03/28 10:58:03;;;;;;;1.20;0.73;;;11.60;99.90;;;;;;4936517;29;20437;-66
2024/03/28 11:00:29;;;;;;;1.00;0.70;;;11.60;99.90;;;;;;4964720;28;20429;-67
2024/03/28 11:02:56;;;;;;;1.50;1.10;;;12.20;99.90;;;;;;4956472;28;20468;-66
2024/03/28 11:05:24;;;;;;;0.90;0.80;;;12.10;99.90;;;;;;4956450;28;20946;-65
2024/03/28 11:07:51;;;;;;;1.03;0.80;;;12.80;99.90;;;;;;4955068;28;20468;-68
2024/03/28 11:10:18;;;;;;;0.90;0.90;;;13.40;99.90;;;;;;4944261;28;21000;-67
2024/03/28 11:12:43;;;;;;;1.33;0.70;;;13.10;99.90;;;;;;4945125;28;20503;-67
2024/03/28 11:15:18;;;;;;;0.87;0.87;;;13.10;99.90;;;;;;4948099;28;20571;-67
2024/03/28 11:17:45;;;;;;;4.10;2.17;;;13.80;99.90;;;;;;4953860;28;20201;-67
2024/03/28 11:20:17;;;;;;;2.60;1.60;;;14.80;98.70;;;;;;4955540;28;20442;-67
2024/03/28 11:22:42;;;;;;;1.13;0.80;;;15.40;94.20;;;;;;4955437;28;20464;-67
2024/03/28 11:25:30;;;;;;;0.80;0.80;;;15.40;92.10;;;;;;4955905;28;20918;-68
2024/03/28 11:28:10;;;;;;;1.27;0.80;;;15.20;92.70;;;;;;4947790;29;20248;-68
2024/03/28 11:30:37;;;;;;;1.10;1.00;;;15.30;93.40;;;;;;4957972;28;21009;-67
2024/03/28 11:33:11;;;;;;;0.93;0.90;;;15.10;92.20;;;;;;4955626;29;20437;-65
2024/03/28 11:35:37;;;;;;;1.23;1.10;;;14.50;91.40;;;;;;4955898;28;20432;-66
2024/03/28 11:38:05;;;;;;;1.10;1.03;;;13.80;93.20;;;;;;4954914;28;21248;-66
2024/03/28 11:40:31;;;;;;;0.80;0.80;;;13.00;97.00;;;;;;4955810;28;20455;-66
2024/03/28 11:43:15;;;;;;;1.10;1.00;;;12.70;98.60;;;;;;4937805;28;20500;-66
2024/03/28 11:46:00;;;;;;;1.23;0.80;;;12.90;99.00;;;;;;4936547;29;20174;-66
2024/03/28 11:48:28;;;;;;;0.80;0.80;;;13.40;98.10;;;;;;4935769;29;20433;-66
2024/03/28 11:50:54;;;;;;;1.33;1.23;;;13.50;95.00;;;;;;4936396;29;20424;-66
2024/03/28 11:53:20;;;;;;;0.90;0.90;;;13.50;94.20;;;;;;4943306;29;20432;-66
2024/03/28 11:55:47;;;;;;;0.70;0.70;;;14.20;92.90;;;;;;4955567;29;20937;-66
2024/03/28 11:58:17;;;;;;;1.00;1.00;;;14.80;86.30;;;;;;4954609;28;20263;-66
2024/03/28 12:00:44;;;;;;;1.30;0.97;;;14.90;85.00;;;;;;4955271;28;20427;-66
2024/03/28 12:03:09;;;;;;;1.03;1.03;;;15.30;81.60;;;;;;4955199;28;20464;-67
2024/03/28 12:05:36;;;;;;;1.13;1.13;;;17.00;75.00;;;;;;4946912;28;20428;-67
2024/03/28 12:08:02;;;;;;;1.10;1.00;;;17.80;62.30;;;;;;4990322;23;20243;-67
2024/03/28 12:10:28;;;;;;;1.13;0.80;;;18.30;56.80;;;;;;4974113;28;20420;-67
2024/03/28 12:12:54;;;;;;;1.03;1.03;;;17.50;56.90;;;;;;4972456;28;20438;-67
2024/03/28 12:15:19;;;;;;;1.30;1.10;;;17.90;56.50;;;;;;4973305;28;20489;-66
2024/03/28 12:17:45;;;;;;;0.87;0.87;;;18.30;56.20;;;;;;4983995;28;20211;-66
2024/03/28 12:20:14;;;;;;;0.83;0.83;;;18.60;52.60;;;;;;4993749;28;20585;-67
2024/03/28 12:22:40;;;;;;;0.87;0.87;;;19.20;49.30;;;;;;4993922;28;20291;-67
2024/03/28 12:25:10;;;;;;;2.90;1.07;;;18.40;50.00;;;;;;4993501;28;20454;-67
2024/03/28 12:27:39;;;;;;;1.20;1.20;;;17.40;52.50;;;;;;5001902;28;20309;-67
2024/03/28 12:30:14;;;;;;;1.23;1.10;;;17.40;53.40;;;;;;4994649;28;20427;-67
2024/03/28 12:32:40;;;;;;;1.23;0.90;;;17.00;55.40;;;;;;4993356;28;20513;-68
2024/03/28 12:35:07;;;;;;;1.30;1.20;;;16.60;57.40;;;;;;4993269;28;20430;-66
2024/03/28 12:37:33;;;;;;;1.20;1.20;;;16.60;59.00;;;;;;4992656;28;20442;-67
2024/03/28 12:40:04;;;;;;;1.10;1.00;;;18.00;57.50;;;;;;4993159;28;20517;-67
2024/03/28 12:42:30;;;;;;;1.20;1.20;;;18.30;53.30;;;;;;4993452;28;20517;-68
2024/03/28 12:44:56;;;;;;;1.17;1.07;;;16.00;54.80;;;;;;4993323;28;20939;-68
2024/03/28 12:47:22;;;;;;;0.70;0.70;;;15.30;59.30;;;;;;4992559;28;20473;-68
2024/03/28 12:49:49;;;;;;;0.80;0.63;;;15.60;58.10;;;;;;4992993;28;20431;-67
2024/03/28 12:52:21;;;;;;;2.00;1.90;;;16.10;53.80;;;;;;4993472;28;20951;-68
2024/03/28 12:54:47;;;;;;;1.03;1.03;;;16.70;53.40;;;;;;4993160;28;20790;-68
2024/03/28 12:57:13;;;;;;;2.00;1.40;;;17.00;50.60;;;;;;4994385;28;20541;-68
2024/03/28 12:59:38;;;;;;;0.93;0.93;;;17.30;48.20;;;;;;5008925;28;20434;-67